TJPS

Mercedita Airport

Ponce, Puerto Rico, USA
TJPS 182320Z 1900/1924 06005KT P6SM FEW030 SCT050 TEMPO 1903/1906 VRB03KT P6SM FEW030 FM191400 13010KT P6SM FEW030 FM191700 14011G17KT P6SM FEW030 FM192100 10006KT P6SM SCT025
Issued Valid From Valid To
Jan-18 @ 23:20 UTC
(4 hours ago)
Jan-19 @ 00:00 UTC
(3 hours ago)
Jan-20 @ 00:00 UTC
(in 21 hours)
Jan-19 @ 00:00 to Jan-19 @ 14:00
TJPS 182320Z 1900/1924 06005KT P6SM FEW030 SCT050
Wind Visibility Clouds
60° at 5 knots Greater than 6 miles
  • Few at 3,000' AGL
  • Scattered at 5,000' AGL
Temporary Jan-19 @ 03:00 to Jan-19 @ 06:00
TEMPO 1903/1906 VRB03KT P6SM FEW030
Wind Visibility Clouds
Variable at 3 knots Greater than 6 miles
  • Few at 3,000' AGL
From Jan-19 @ 14:00 to Jan-19 @ 17:00
FM191400 13010KT P6SM FEW030
Wind Visibility Clouds
130° at 10 knots Greater than 6 miles
  • Few at 3,000' AGL
From Jan-19 @ 17:00 to Jan-19 @ 21:00
FM191700 14011G17KT P6SM FEW030
Wind Visibility Clouds
140° at 11 knots
 Gusting to 17 knots
Greater than 6 miles
  • Few at 3,000' AGL
From Jan-19 @ 21:00 to Jan-20 @ 00:00
FM192100 10006KT P6SM SCT025
Wind Visibility Clouds
100° at 6 knots Greater than 6 miles
  • Scattered at 2,500' AGL
TJPS 182320Z 1900/1924 06005KT P6SM FEW030 SCT050 TEMPO 1903/1906 VRB03KT P6SM FEW030 FM191400 13010KT P6SM FEW030 FM191700 14011G17KT P6SM FEW030 FM192100 10006KT P6SM SCT025
Issued Jan-18 @ 23:20 UTC
(4 hours ago)
Valid From Jan-19 @ 00:00 UTC
(3 hours ago)
Valid To Jan-20 @ 00:00 UTC
(in 21 hours)
Jan-19 @ 00:00 - Jan-19 @ 14:00
Wind Visibility
60° at 5 knots Greater than 6 miles
Clouds
  • Few at 3,000' AGL
  • Scattered at 5,000' AGL
Temporary Jan-19 @ 03:00 - Jan-19 @ 06:00
Wind Visibility
Variable at 3 knots Greater than 6 miles
Clouds
  • Few at 3,000' AGL
From Jan-19 @ 14:00 - Jan-19 @ 17:00
Wind Visibility
130° at 10 knots Greater than 6 miles
Clouds
  • Few at 3,000' AGL
From Jan-19 @ 17:00 - Jan-19 @ 21:00
Wind Visibility
140° at 11 knots
 Gusting to 17 knots
Greater than 6 miles
Clouds
  • Few at 3,000' AGL
From Jan-19 @ 21:00 - Jan-20 @ 00:00
Wind Visibility
100° at 6 knots Greater than 6 miles
Clouds
  • Scattered at 2,500' AGL